Time;durP1;ratioP1;P1;durP2;ratioP2;P2;SDS_P1;SDS_P2;PMS_P1;PMS_P2;Temp;Humidity;BMP_temperature;BMP_pressure;BME280_temperature;BME280_humidity;BME280_pressure;Samples;Min_cycle;Max_cycle;Signal;HPM_P1;HPM_P2
2023/05/20 05:00:35;;;;;;;6.00;5.40;;;14.70;97.20;;;;;;1721264;28;20247;-69
2023/05/20 05:01:26;;;;;;;8.95;5.55;;;14.70;97.20;;;;;;1721170;28;20205;-69
2023/05/20 05:02:17;;;;;;;6.67;5.20;;;14.70;97.20;;;;;;1721250;28;20207;-69
2023/05/20 05:03:08;;;;;;;6.72;5.18;;;14.70;97.20;;;;;;1720791;28;20487;-70
2023/05/20 05:04:00;;;;;;;6.37;5.77;;;14.80;97.20;;;;;;1721160;28;20207;-70
2023/05/20 05:04:51;;;;;;;8.38;5.30;;;14.80;97.20;;;;;;1721120;28;20444;-70
2023/05/20 05:05:43;;;;;;;6.30;5.80;;;14.80;97.20;;;;;;1721229;28;20209;-70
2023/05/20 05:06:33;;;;;;;8.63;5.82;;;14.80;97.20;;;;;;1721216;28;20209;-70
2023/05/20 05:07:25;;;;;;;7.27;6.67;;;14.80;97.20;;;;;;1721171;28;20241;-70
2023/05/20 05:08:16;;;;;;;6.28;5.72;;;14.90;97.20;;;;;;1717394;28;20193;-70
2023/05/20 05:09:08;;;;;;;5.93;5.43;;;14.90;97.20;;;;;;1714401;28;20204;-69
2023/05/20 05:09:59;;;;;;;8.10;5.53;;;14.90;97.20;;;;;;1714439;28;20206;-70
2023/05/20 05:10:51;;;;;;;6.00;5.53;;;14.90;97.20;;;;;;1714444;28;20276;-70
2023/05/20 05:11:42;;;;;;;8.38;5.55;;;14.90;97.20;;;;;;1719812;28;20213;-70
2023/05/20 05:12:34;;;;;;;6.13;5.63;;;14.90;97.20;;;;;;1720654;28;20223;-71
2023/05/20 05:13:25;;;;;;;6.07;5.55;;;15.00;97.20;;;;;;1721040;28;20216;-72
2023/05/20 05:14:17;;;;;;;5.77;5.27;;;15.00;97.20;;;;;;1721082;28;20284;-72
2023/05/20 05:15:08;;;;;;;6.28;5.68;;;15.00;97.20;;;;;;1721157;28;20700;-71
2023/05/20 05:16:02;;;;;;;6.60;5.80;;;15.00;97.20;;;;;;1721173;28;20580;-71
2023/05/20 05:16:53;;;;;;;8.63;6.18;;;15.10;97.20;;;;;;1721100;28;20263;-71
2023/05/20 05:17:44;;;;;;;7.17;6.57;;;15.10;97.20;;;;;;1721113;28;20255;-71
2023/05/20 05:18:35;;;;;;;6.47;5.88;;;15.10;97.20;;;;;;1720409;28;20209;-72
2023/05/20 05:19:27;;;;;;;7.03;6.33;;;15.10;97.20;;;;;;1720910;28;20207;-71
2023/05/20 05:20:18;;;;;;;6.07;5.57;;;15.10;97.20;;;;;;1720922;28;20463;-72
2023/05/20 05:21:09;;;;;;;7.37;6.70;;;15.10;97.20;;;;;;1721076;28;20201;-72
2023/05/20 05:22:00;;;;;;;6.80;5.60;;;15.20;97.20;;;;;;1721113;28;20445;-72
2023/05/20 05:22:52;;;;;;;6.00;5.37;;;15.20;97.20;;;;;;1720748;28;20381;-72
2023/05/20 05:23:43;;;;;;;6.53;6.03;;;15.20;97.20;;;;;;1720923;28;20220;-72
2023/05/20 05:24:34;;;;;;;6.70;6.20;;;15.20;97.20;;;;;;1720958;28;20193;-72
2023/05/20 05:25:25;;;;;;;6.68;6.07;;;15.30;97.20;;;;;;1720989;28;20216;-72
2023/05/20 05:26:17;;;;;;;6.83;6.23;;;15.30;97.20;;;;;;1721119;28;20205;-72
2023/05/20 05:27:07;;;;;;;7.10;6.40;;;15.30;97.20;;;;;;1719115;28;20197;-72
2023/05/20 05:27:59;;;;;;;7.00;6.40;;;15.30;97.20;;;;;;1717860;28;20205;-72
2023/05/20 05:28:50;;;;;;;6.47;5.88;;;15.30;97.20;;;;;;1718164;28;20198;-72
2023/05/20 05:29:41;;;;;;;6.90;6.30;;;15.30;97.20;;;;;;1717851;28;20217;-72
2023/05/20 05:30:32;;;;;;;6.72;6.18;;;15.30;97.20;;;;;;1716726;28;20237;-72
2023/05/20 05:31:25;;;;;;;5.80;5.30;;;15.40;97.20;;;;;;1717761;28;20205;-72
2023/05/20 05:32:16;;;;;;;6.43;5.93;;;15.40;97.20;;;;;;1718276;28;20205;-72
2023/05/20 05:33:08;;;;;;;5.70;5.30;;;15.40;97.20;;;;;;1716496;28;20197;-71
2023/05/20 05:33:58;;;;;;;8.38;6.95;;;15.40;97.20;;;;;;1717150;28;20201;-71
2023/05/20 05:34:50;;;;;;;6.87;6.27;;;15.40;97.20;;;;;;1718170;28;20212;-71
2023/05/20 05:35:41;;;;;;;10.93;6.70;;;15.40;97.20;;;;;;1717543;28;20209;-72
2023/05/20 05:36:34;;;;;;;7.10;6.47;;;15.50;97.20;;;;;;1716740;28;20568;-71
2023/05/20 05:37:25;;;;;;;6.88;6.28;;;15.50;97.20;;;;;;1716848;28;20204;-71
2023/05/20 05:38:16;;;;;;;5.90;5.40;;;15.50;97.20;;;;;;1718102;28;20204;-71
2023/05/20 05:39:07;;;;;;;6.55;5.85;;;15.50;97.20;;;;;;1718159;28;20198;-71
2023/05/20 05:39:59;;;;;;;6.10;5.50;;;15.60;97.20;;;;;;1717269;28;20197;-72
2023/05/20 05:40:50;;;;;;;7.38;6.68;;;15.60;97.20;;;;;;1720267;28;20225;-71
2023/05/20 05:41:41;;;;;;;6.73;6.13;;;15.60;97.20;;;;;;1721052;28;20233;-71
2023/05/20 05:42:32;;;;;;;7.22;6.10;;;15.60;97.20;;;;;;1720619;28;20808;-71
2023/05/20 05:43:24;;;;;;;7.07;6.47;;;15.60;97.20;;;;;;1720654;28;20241;-72
2023/05/20 05:44:15;;;;;;;6.72;5.78;;;15.70;97.20;;;;;;1717754;28;20213;-72
2023/05/20 05:45:08;;;;;;;6.50;5.90;;;15.70;97.20;;;;;;1720697;28;20207;-71
2023/05/20 05:45:59;;;;;;;6.90;6.15;;;15.70;97.20;;;;;;1720916;28;20214;-72
2023/05/20 05:46:52;;;;;;;6.70;6.10;;;15.80;97.20;;;;;;1719659;28;20212;-71
2023/05/20 05:47:42;;;;;;;6.32;5.80;;;15.80;97.20;;;;;;1720618;28;20487;-72
2023/05/20 05:48:34;;;;;;;6.30;5.80;;;15.80;97.20;;;;;;1720865;28;20200;-71
2023/05/20 05:49:25;;;;;;;6.95;5.90;;;15.90;97.20;;;;;;1720920;28;20216;-72
2023/05/20 05:50:16;;;;;;;6.30;5.80;;;15.90;97.20;;;;;;1720897;28;20207;-72
2023/05/20 05:51:07;;;;;;;6.90;5.80;;;15.90;97.20;;;;;;1720545;28;20212;-72
2023/05/20 05:51:58;;;;;;;7.10;6.50;;;15.90;97.20;;;;;;1720863;28;20935;-72
2023/05/20 05:52:50;;;;;;;7.10;6.57;;;15.90;97.20;;;;;;1720408;28;20717;-72
2023/05/20 05:53:41;;;;;;;6.68;6.07;;;15.90;97.20;;;;;;1720908;28;20987;-72
2023/05/20 05:54:32;;;;;;;6.20;5.60;;;15.90;97.20;;;;;;1721610;28;20602;-72
2023/05/20 05:55:23;;;;;;;7.35;6.75;;;16.00;97.20;;;;;;1727445;28;20219;-72
2023/05/20 05:56:15;;;;;;;6.53;6.03;;;16.00;97.20;;;;;;1722877;28;20197;-70
2023/05/20 05:57:06;;;;;;;6.90;6.30;;;16.00;97.20;;;;;;1720706;28;20204;-71
2023/05/20 05:57:58;;;;;;;7.07;6.38;;;16.00;97.20;;;;;;1720735;28;20276;-71
2023/05/20 05:58:49;;;;;;;8.55;5.88;;;16.00;97.20;;;;;;1720715;28;20585;-71
2023/05/20 05:59:40;;;;;;;6.30;5.80;;;16.10;97.20;;;;;;1720693;28;20193;-71
2023/05/20 06:00:31;;;;;;;6.88;6.10;;;16.10;97.20;;;;;;1720768;28;20257;-71
2023/05/20 06:01:23;;;;;;;7.57;6.77;;;16.10;97.20;;;;;;1720845;28;20212;-71
2023/05/20 06:02:15;;;;;;;6.88;6.18;;;16.10;97.20;;;;;;1720834;28;20727;-71
2023/05/20 06:03:07;;;;;;;7.07;6.47;;;16.10;97.20;;;;;;1720480;28;20230;-71
2023/05/20 06:03:57;;;;;;;6.80;6.18;;;16.10;97.20;;;;;;1720758;28;20201;-71
2023/05/20 06:04:49;;;;;;;6.47;5.93;;;16.10;97.20;;;;;;1720776;28;20201;-71
2023/05/20 06:05:43;;;;;;;7.05;6.45;;;16.10;97.20;;;;;;1720599;28;20205;-73
2023/05/20 06:06:35;;;;;;;7.38;6.78;;;16.10;97.20;;;;;;1718519;28;20205;-72
2023/05/20 06:07:26;;;;;;;6.97;6.10;;;16.10;97.20;;;;;;1719255;28;20269;-75
2023/05/20 06:08:18;;;;;;;6.33;5.70;;;16.10;97.20;;;;;;1720628;28;20252;-74
2023/05/20 06:09:10;;;;;;;7.30;5.65;;;16.20;97.20;;;;;;1720711;28;20248;-72
2023/05/20 06:10:02;;;;;;;5.97;5.47;;;16.20;97.20;;;;;;1719481;28;20197;-72
2023/05/20 06:10:53;;;;;;;6.65;5.85;;;16.20;97.20;;;;;;1720638;28;20580;-73
2023/05/20 06:11:45;;;;;;;6.73;6.03;;;16.20;97.20;;;;;;1720526;28;20572;-73
2023/05/20 06:12:35;;;;;;;7.75;6.95;;;16.20;97.20;;;;;;1720430;28;20201;-72
2023/05/20 06:13:27;;;;;;;6.30;5.80;;;16.20;97.20;;;;;;1720800;28;20201;-72
2023/05/20 06:14:18;;;;;;;6.43;5.93;;;16.20;97.20;;;;;;1720796;28;20205;-72
2023/05/20 06:15:10;;;;;;;7.33;6.30;;;16.30;97.20;;;;;;1720680;28;20276;-72
2023/05/20 06:16:01;;;;;;;6.95;6.35;;;16.30;97.20;;;;;;1720428;28;20193;-72
2023/05/20 06:16:53;;;;;;;8.67;7.30;;;16.30;97.20;;;;;;1720023;28;20657;-72
2023/05/20 06:17:45;;;;;;;6.55;5.95;;;16.30;97.20;;;;;;1719266;28;20201;-71
2023/05/20 06:18:37;;;;;;;6.78;6.18;;;16.40;97.20;;;;;;1713552;28;20248;-72
2023/05/20 06:19:27;;;;;;;6.43;5.93;;;16.40;97.20;;;;;;1713881;28;20587;-72
2023/05/20 06:20:19;;;;;;;7.37;6.67;;;16.40;97.20;;;;;;1717088;28;20757;-72
2023/05/20 06:21:10;;;;;;;6.75;6.10;;;16.50;97.20;;;;;;1719117;28;20197;-72
2023/05/20 06:22:02;;;;;;;6.23;5.57;;;16.50;97.20;;;;;;1720572;28;20205;-72
2023/05/20 06:22:52;;;;;;;7.07;6.38;;;16.50;97.20;;;;;;1719867;28;20281;-72
2023/05/20 06:23:44;;;;;;;6.27;5.67;;;16.60;97.20;;;;;;1720399;28;20221;-72
2023/05/20 06:24:35;;;;;;;6.25;5.65;;;16.60;97.20;;;;;;1720644;28;20680;-72
2023/05/20 06:25:27;;;;;;;6.70;6.10;;;16.70;97.20;;;;;;1720581;28;20229;-72
2023/05/20 06:26:18;;;;;;;7.05;6.45;;;16.70;97.20;;;;;;1720431;28;20205;-72
2023/05/20 06:27:10;;;;;;;7.27;6.13;;;16.70;97.20;;;;;;1720346;28;20197;-71
2023/05/20 06:28:01;;;;;;;6.88;6.18;;;16.80;97.20;;;;;;1720501;28;20605;-72
2023/05/20 06:28:52;;;;;;;7.83;6.90;;;16.80;97.20;;;;;;1720611;28;20227;-72
2023/05/20 06:29:43;;;;;;;6.72;6.13;;;16.80;97.20;;;;;;1720626;28;20263;-72
2023/05/20 06:30:35;;;;;;;6.33;5.83;;;16.80;97.20;;;;;;1720465;28;20284;-72
2023/05/20 06:31:26;;;;;;;7.05;6.45;;;16.80;97.20;;;;;;1720402;28;20209;-73
2023/05/20 06:32:17;;;;;;;6.90;6.30;;;16.80;97.20;;;;;;1720617;28;20197;-72
2023/05/20 06:33:10;;;;;;;7.47;6.88;;;16.90;97.20;;;;;;1719853;28;20444;-72
2023/05/20 06:34:02;;;;;;;7.65;7.00;;;16.90;97.20;;;;;;1720462;28;20287;-73
2023/05/20 06:34:52;;;;;;;7.82;7.05;;;16.90;97.20;;;;;;1720550;28;20208;-72
2023/05/20 06:35:44;;;;;;;6.30;5.70;;;16.90;97.20;;;;;;1720345;28;20204;-72
2023/05/20 06:36:35;;;;;;;7.45;6.75;;;17.00;97.20;;;;;;1716744;28;20251;-72
2023/05/20 06:37:26;;;;;;;7.17;6.47;;;17.00;97.20;;;;;;1720495;28;20201;-72
2023/05/20 06:38:17;;;;;;;8.82;6.45;;;17.00;97.20;;;;;;1720556;28;20224;-72
2023/05/20 06:39:11;;;;;;;7.23;6.70;;;17.00;97.20;;;;;;1720570;28;20194;-72
2023/05/20 06:40:03;;;;;;;11.85;7.18;;;17.00;97.20;;;;;;1720545;28;20224;-72
2023/05/20 06:40:54;;;;;;;7.32;6.72;;;17.10;97.20;;;;;;1720443;28;20231;-72
2023/05/20 06:41:45;;;;;;;7.70;7.00;;;17.10;97.20;;;;;;1720431;28;20216;-72
2023/05/20 06:42:37;;;;;;;7.27;6.57;;;17.10;97.20;;;;;;1719797;28;20232;-72
2023/05/20 06:43:28;;;;;;;6.43;5.93;;;17.10;97.20;;;;;;1720364;28;20213;-72
2023/05/20 06:44:19;;;;;;;6.77;6.17;;;17.20;97.20;;;;;;1720478;28;20205;-72
2023/05/20 06:45:12;;;;;;;6.80;6.13;;;17.20;97.20;;;;;;1720584;28;20271;-72
2023/05/20 06:46:04;;;;;;;8.43;6.70;;;17.30;97.20;;;;;;1720247;28;20201;-72
2023/05/20 06:46:55;;;;;;;6.93;6.00;;;17.30;97.20;;;;;;1720514;28;20730;-72
2023/05/20 06:47:47;;;;;;;6.73;6.13;;;17.40;97.20;;;;;;1720449;28;20734;-72
2023/05/20 06:48:40;;;;;;;7.90;6.75;;;17.40;97.20;;;;;;1720464;28;20220;-72
2023/05/20 06:49:31;;;;;;;6.93;6.38;;;17.50;97.20;;;;;;1720598;28;20348;-72
2023/05/20 06:50:22;;;;;;;7.10;6.47;;;17.50;97.20;;;;;;1720344;28;20208;-72
2023/05/20 06:51:14;;;;;;;6.70;6.20;;;17.60;97.20;;;;;;1720514;28;20193;-72
2023/05/20 06:52:05;;;;;;;6.90;6.30;;;17.60;97.20;;;;;;1720496;28;20208;-72
2023/05/20 06:52:57;;;;;;;6.45;5.88;;;17.60;97.20;;;;;;1720100;28;20276;-72
2023/05/20 06:53:48;;;;;;;6.50;5.90;;;17.60;97.20;;;;;;1720644;28;20213;-72
2023/05/20 06:54:40;;;;;;;7.60;7.00;;;17.70;97.20;;;;;;1720923;28;20201;-72
2023/05/20 06:55:31;;;;;;;6.88;6.28;;;17.70;97.20;;;;;;1720391;28;20256;-72
2023/05/20 06:56:22;;;;;;;7.43;6.77;;;17.80;97.20;;;;;;1720130;28;20220;-72
2023/05/20 06:57:13;;;;;;;7.90;7.20;;;17.80;97.20;;;;;;1720479;28;20242;-72
2023/05/20 06:58:05;;;;;;;7.97;7.17;;;17.80;97.20;;;;;;1720411;28;20196;-72
2023/05/20 06:58:55;;;;;;;8.00;7.20;;;17.90;97.20;;;;;;1720196;28;20205;-72
2023/05/20 06:59:47;;;;;;;7.00;6.30;;;17.90;97.20;;;;;;1720012;28;20201;-72
2023/05/20 07:00:38;;;;;;;7.45;6.50;;;18.00;97.20;;;;;;1719917;28;20229;-71
2023/05/20 07:01:30;;;;;;;6.73;6.13;;;18.00;97.20;;;;;;1719818;28;20197;-72
2023/05/20 07:02:21;;;;;;;6.93;6.32;;;18.00;97.20;;;;;;1718649;28;20216;-73
2023/05/20 07:03:13;;;;;;;7.43;6.68;;;18.10;97.20;;;;;;1720042;28;20204;-74
2023/05/20 07:04:05;;;;;;;7.80;7.10;;;18.10;97.20;;;;;;1726225;28;20536;-74
2023/05/20 07:04:57;;;;;;;7.30;6.53;;;18.10;97.20;;;;;;1727248;28;20257;-75
2023/05/20 07:05:50;;;;;;;7.05;6.45;;;18.20;97.20;;;;;;1727202;28;20712;-74
2023/05/20 07:06:41;;;;;;;6.65;6.05;;;18.20;97.20;;;;;;1727129;28;20196;-74
2023/05/20 07:07:32;;;;;;;7.90;7.20;;;18.30;97.20;;;;;;1726519;28;20201;-74
2023/05/20 07:08:24;;;;;;;6.93;6.33;;;18.30;97.20;;;;;;1723182;28;20193;-72
2023/05/20 07:09:15;;;;;;;8.07;6.57;;;18.40;97.20;;;;;;1722212;28;20205;-72
2023/05/20 07:10:08;;;;;;;8.37;7.10;;;18.40;97.20;;;;;;1727142;28;20245;-73
2023/05/20 07:10:59;;;;;;;7.15;6.50;;;18.50;97.20;;;;;;1726277;28;20601;-71
2023/05/20 07:11:50;;;;;;;6.60;6.10;;;18.50;97.20;;;;;;1726822;28;20196;-72
2023/05/20 07:12:41;;;;;;;7.53;6.85;;;18.60;97.20;;;;;;1726381;28;20580;-72
2023/05/20 07:13:33;;;;;;;8.17;7.47;;;18.60;97.20;;;;;;1726941;28;20196;-72
2023/05/20 07:14:24;;;;;;;7.82;7.03;;;18.60;97.20;;;;;;1726646;28;20252;-72
2023/05/20 07:15:16;;;;;;;7.87;7.17;;;18.60;97.20;;;;;;1726868;28;20188;-73
2023/05/20 07:16:07;;;;;;;7.45;6.82;;;18.60;97.20;;;;;;1720141;28;20205;-74
2023/05/20 07:16:59;;;;;;;7.63;6.60;;;18.60;97.20;;;;;;1724523;28;20399;-73
2023/05/20 07:17:49;;;;;;;7.60;6.85;;;18.60;97.20;;;;;;1719527;28;20197;-71
2023/05/20 07:18:41;;;;;;;7.00;6.40;;;18.60;97.20;;;;;;1719657;28;20205;-73
2023/05/20 07:19:33;;;;;;;7.50;6.90;;;18.60;97.20;;;;;;1716851;28;20198;-73
2023/05/20 07:20:25;;;;;;;7.90;7.20;;;18.60;97.20;;;;;;1720120;28;20632;-73
2023/05/20 07:21:16;;;;;;;7.53;6.93;;;18.60;97.20;;;;;;1720433;28;20201;-73
2023/05/20 07:22:08;;;;;;;11.13;7.28;;;18.60;97.20;;;;;;1720331;28;20215;-71
2023/05/20 07:23:00;;;;;;;7.80;7.10;;;18.60;97.20;;;;;;1719802;28;20707;-71
2023/05/20 07:23:51;;;;;;;7.38;6.78;;;18.60;97.20;;;;;;1720106;28;20653;-70
2023/05/20 07:24:42;;;;;;;7.55;6.95;;;18.60;97.20;;;;;;1720431;28;20204;-70
2023/05/20 07:25:34;;;;;;;7.63;6.93;;;18.70;97.20;;;;;;1720424;28;20205;-70
2023/05/20 07:26:25;;;;;;;7.68;7.07;;;18.70;97.20;;;;;;1720464;28;20209;-70
2023/05/20 07:27:16;;;;;;;7.47;6.87;;;18.70;97.20;;;;;;1720464;28;20251;-71
2023/05/20 07:28:07;;;;;;;7.78;7.07;;;18.70;97.20;;;;;;1719214;28;20205;-70
2023/05/20 07:28:59;;;;;;;8.10;7.30;;;18.70;97.20;;;;;;1713671;28;20197;-71
2023/05/20 07:29:50;;;;;;;7.85;7.20;;;18.70;97.20;;;;;;1717489;28;20198;-71
2023/05/20 07:30:45;;;;;;;7.25;6.55;;;18.70;97.20;;;;;;1720147;28;20232;-71
2023/05/20 07:31:36;;;;;;;7.15;6.47;;;18.80;97.20;;;;;;1720486;28;20693;-71
2023/05/20 07:32:27;;;;;;;10.03;7.57;;;18.80;97.20;;;;;;1719745;28;20204;-71
2023/05/20 07:33:18;;;;;;;7.25;6.65;;;18.80;97.20;;;;;;1720382;28;20205;-72
2023/05/20 07:34:10;;;;;;;8.00;7.30;;;18.80;97.20;;;;;;1720325;28;20197;-72
2023/05/20 07:35:02;;;;;;;8.05;7.10;;;18.90;97.20;;;;;;1720580;28;20197;-71
2023/05/20 07:35:54;;;;;;;7.20;6.60;;;18.90;97.20;;;;;;1720445;28;20205;-72
2023/05/20 07:36:45;;;;;;;8.43;7.72;;;18.90;97.20;;;;;;1720342;28;20695;-71
2023/05/20 07:37:37;;;;;;;7.43;6.83;;;18.90;97.20;;;;;;1720389;28;20683;-72
2023/05/20 07:38:27;;;;;;;8.25;7.53;;;19.00;97.20;;;;;;1720300;28;20208;-72
2023/05/20 07:39:19;;;;;;;7.20;6.60;;;19.00;97.20;;;;;;1720336;28;20208;-71
2023/05/20 07:40:11;;;;;;;10.35;6.90;;;19.00;97.20;;;;;;1720193;28;20205;-72
2023/05/20 07:41:02;;;;;;;7.63;6.90;;;19.00;97.20;;;;;;1720366;28;20292;-71
2023/05/20 07:41:53;;;;;;;7.70;7.00;;;18.90;97.20;;;;;;1720442;28;20669;-71
2023/05/20 07:42:45;;;;;;;7.47;6.73;;;18.90;97.20;;;;;;1719592;28;20928;-71
2023/05/20 07:43:36;;;;;;;7.78;6.97;;;18.90;97.20;;;;;;1720439;28;20244;-72
2023/05/20 07:44:27;;;;;;;9.00;7.70;;;18.90;97.20;;;;;;1720151;28;20228;-71
2023/05/20 07:45:18;;;;;;;8.38;7.68;;;18.90;97.20;;;;;;1720461;28;20201;-70
2023/05/20 07:46:10;;;;;;;8.00;7.30;;;18.90;97.20;;;;;;1720447;28;20280;-71
2023/05/20 07:47:01;;;;;;;8.27;7.47;;;18.90;97.20;;;;;;1720452;28;20826;-71
2023/05/20 07:47:53;;;;;;;8.13;7.43;;;19.00;97.20;;;;;;1720466;28;20205;-72
2023/05/20 07:48:44;;;;;;;7.15;6.55;;;19.00;97.20;;;;;;1720327;28;20209;-70
2023/05/20 07:49:36;;;;;;;7.60;7.00;;;19.10;97.20;;;;;;1720184;28;20692;-70
2023/05/20 07:50:29;;;;;;;8.43;7.72;;;19.10;97.20;;;;;;1720236;28;20208;-71
2023/05/20 07:51:20;;;;;;;7.15;6.45;;;19.20;97.20;;;;;;1720477;28;20209;-71
2023/05/20 07:52:11;;;;;;;7.93;7.13;;;19.30;97.20;;;;;;1720346;28;20201;-71
2023/05/20 07:53:03;;;;;;;7.50;6.90;;;19.40;97.20;;;;;;1719730;28;20685;-71
2023/05/20 07:53:54;;;;;;;7.80;7.20;;;19.40;97.20;;;;;;1720194;28;20229;-70
2023/05/20 07:54:46;;;;;;;8.05;7.35;;;19.40;97.20;;;;;;1720381;28;20236;-71
2023/05/20 07:55:36;;;;;;;7.72;7.05;;;19.40;97.20;;;;;;1720497;28;20566;-71
2023/05/20 07:56:28;;;;;;;8.03;7.33;;;19.40;97.20;;;;;;1720395;28;20219;-71
2023/05/20 07:57:19;;;;;;;8.55;7.85;;;19.40;97.20;;;;;;1720314;28;20201;-71
2023/05/20 07:58:11;;;;;;;8.03;7.33;;;19.40;97.20;;;;;;1720295;28;20205;-71
2023/05/20 07:59:02;;;;;;;8.18;7.47;;;19.40;97.20;;;;;;1720236;28;20200;-71
2023/05/20 07:59:53;;;;;;;7.90;7.20;;;19.40;97.20;;;;;;1720058;28;20194;-71
2023/05/20 08:00:44;;;;;;;7.35;6.75;;;19.50;97.20;;;;;;1720260;28;20233;-72
2023/05/20 08:01:36;;;;;;;7.53;6.93;;;19.50;97.20;;;;;;1720321;28;20288;-71
2023/05/20 08:02:27;;;;;;;7.45;6.82;;;19.50;97.20;;;;;;1719529;28;20205;-71
2023/05/20 08:03:21;;;;;;;8.37;7.60;;;19.60;97.20;;;;;;1717429;28;20251;-70
2023/05/20 08:04:11;;;;;;;7.22;6.53;;;19.60;97.20;;;;;;1713405;28;20248;-74
2023/05/20 08:05:04;;;;;;;7.70;7.10;;;19.60;97.20;;;;;;1713564;28;20213;-72
2023/05/20 08:05:56;;;;;;;7.65;6.93;;;19.60;97.20;;;;;;1713600;28;20951;-73
2023/05/20 08:06:48;;;;;;;7.68;6.95;;;19.60;97.20;;;;;;1713697;28;20348;-72
2023/05/20 08:07:39;;;;;;;6.15;5.55;;;19.70;97.20;;;;;;1713575;28;20209;-72
2023/05/20 08:08:30;;;;;;;8.37;7.10;;;19.70;97.20;;;;;;1713676;28;20205;-72
2023/05/20 08:09:21;;;;;;;8.00;7.35;;;19.70;97.20;;;;;;1715813;28;20201;-72
2023/05/20 08:10:14;;;;;;;7.93;7.13;;;19.70;97.20;;;;;;1720170;28;20197;-72
2023/05/20 08:11:04;;;;;;;7.82;7.13;;;19.70;97.20;;;;;;1720278;28;20882;-73
2023/05/20 08:11:56;;;;;;;7.60;7.00;;;19.60;97.20;;;;;;1720307;28;20193;-72
2023/05/20 08:12:47;;;;;;;7.00;6.45;;;19.60;97.20;;;;;;1719421;28;20209;-73
2023/05/20 08:13:39;;;;;;;7.63;6.80;;;19.60;97.20;;;;;;1720332;28;20197;-72
2023/05/20 08:14:30;;;;;;;7.65;7.05;;;19.60;97.20;;;;;;1720271;28;20208;-72
2023/05/20 08:15:21;;;;;;;7.70;7.00;;;19.60;97.20;;;;;;1720365;28;20201;-72
2023/05/20 08:16:12;;;;;;;7.50;6.80;;;19.60;97.20;;;;;;1720338;28;20201;-72
2023/05/20 08:17:04;;;;;;;8.07;7.37;;;19.60;97.20;;;;;;1720420;28;20193;-73
2023/05/20 08:17:55;;;;;;;7.85;7.25;;;19.50;97.20;;;;;;1720272;28;20448;-72
2023/05/20 08:18:47;;;;;;;7.60;7.00;;;19.50;97.20;;;;;;1720322;28;20194;-72
2023/05/20 08:19:37;;;;;;;7.40;6.80;;;19.40;97.20;;;;;;1719791;28;20217;-70
2023/05/20 08:20:30;;;;;;;7.37;6.67;;;19.40;97.20;;;;;;1717419;28;20194;-69
2023/05/20 08:21:22;;;;;;;7.18;6.47;;;19.40;97.20;;;;;;1716177;28;20198;-70
2023/05/20 08:22:13;;;;;;;7.55;6.93;;;19.40;97.20;;;;;;1716033;28;20590;-70
2023/05/20 08:23:04;;;;;;;7.65;7.05;;;19.30;97.20;;;;;;1716262;28;20194;-69
2023/05/20 08:23:56;;;;;;;8.03;7.23;;;19.30;97.20;;;;;;1714930;28;20260;-69
2023/05/20 08:24:47;;;;;;;7.78;7.13;;;19.20;97.20;;;;;;1721386;28;20260;-71
2023/05/20 08:25:38;;;;;;;7.40;6.80;;;19.20;97.20;;;;;;1720319;28;20204;-74
2023/05/20 08:26:29;;;;;;;6.90;6.40;;;19.20;97.20;;;;;;1720575;28;20206;-72
2023/05/20 08:27:21;;;;;;;7.30;6.70;;;19.10;97.20;;;;;;1721468;28;20205;-73
2023/05/20 08:28:11;;;;;;;8.15;7.10;;;19.10;97.20;;;;;;1721450;28;20210;-73
2023/05/20 08:29:03;;;;;;;7.47;6.87;;;19.10;97.20;;;;;;1721461;28;20211;-72
2023/05/20 08:29:54;;;;;;;6.80;6.20;;;19.10;97.20;;;;;;1721514;28;20224;-73
2023/05/20 08:30:47;;;;;;;9.13;7.30;;;19.10;97.20;;;;;;1721283;28;20282;-71
2023/05/20 08:31:38;;;;;;;7.85;7.03;;;19.10;97.20;;;;;;1721496;28;20669;-71
2023/05/20 08:32:30;;;;;;;7.60;6.90;;;19.10;97.20;;;;;;1720592;28;20681;-71
2023/05/20 08:33:21;;;;;;;7.32;6.72;;;19.10;97.20;;;;;;1721830;28;20212;-72
2023/05/20 08:34:13;;;;;;;7.83;6.80;;;19.10;97.20;;;;;;1721226;28;20672;-71
2023/05/20 08:35:04;;;;;;;7.35;6.63;;;19.10;97.20;;;;;;1721264;28;20443;-71
2023/05/20 08:35:56;;;;;;;8.05;7.35;;;19.00;97.20;;;;;;1720846;28;20197;-71
2023/05/20 08:36:48;;;;;;;7.28;6.55;;;19.00;97.20;;;;;;1721269;28;20208;-71
2023/05/20 08:37:40;;;;;;;7.10;6.50;;;19.00;97.20;;;;;;1720789;28;20202;-71
2023/05/20 08:38:30;;;;;;;7.57;6.90;;;19.00;97.20;;;;;;1721261;28;20202;-71
2023/05/20 08:39:22;;;;;;;7.70;7.10;;;19.00;97.20;;;;;;1721393;28;20211;-71
2023/05/20 08:40:13;;;;;;;9.27;6.72;;;19.00;97.20;;;;;;1721104;28;20236;-71
2023/05/20 08:41:05;;;;;;;7.38;6.78;;;19.00;97.20;;;;;;1721124;28;20209;-71
2023/05/20 08:41:57;;;;;;;7.90;7.25;;;19.10;97.20;;;;;;1720752;28;20716;-71
2023/05/20 08:42:51;;;;;;;8.20;7.40;;;19.10;97.20;;;;;;1720146;28;20216;-71
2023/05/20 08:43:43;;;;;;;7.75;7.07;;;19.20;97.20;;;;;;1721168;28;20206;-71
2023/05/20 08:44:36;;;;;;;6.95;6.25;;;19.30;97.20;;;;;;1721329;28;20211;-71
2023/05/20 08:45:29;;;;;;;7.13;6.53;;;19.40;97.20;;;;;;1721003;28;20586;-71
2023/05/20 08:46:22;;;;;;;8.35;6.70;;;19.50;97.20;;;;;;1721263;28;20204;-71
2023/05/20 08:47:13;;;;;;;8.82;6.28;;;19.60;97.20;;;;;;1721326;28;20204;-71
2023/05/20 08:48:05;;;;;;;7.53;6.80;;;19.80;97.20;;;;;;1721281;28;20189;-71
2023/05/20 08:48:58;;;;;;;7.40;6.80;;;19.90;97.20;;;;;;1721345;28;20829;-71
2023/05/20 08:49:49;;;;;;;8.32;7.45;;;20.10;97.20;;;;;;1721286;28;20697;-71
2023/05/20 08:50:40;;;;;;;7.78;7.13;;;20.20;97.20;;;;;;1721265;28;20222;-71
2023/05/20 08:51:33;;;;;;;7.75;7.05;;;20.30;97.20;;;;;;1721421;28;20276;-71
2023/05/20 08:52:26;;;;;;;7.18;6.60;;;20.50;97.20;;;;;;1720721;28;20212;-73
2023/05/20 08:53:18;;;;;;;8.15;7.50;;;20.60;97.20;;;;;;1721449;28;20209;-73
2023/05/20 08:54:10;;;;;;;7.47;6.78;;;20.70;97.20;;;;;;1721016;28;20253;-72
2023/05/20 08:55:04;;;;;;;7.10;6.50;;;20.70;97.20;;;;;;1720991;28;20228;-71
2023/05/20 08:55:59;;;;;;;7.63;6.93;;;20.80;97.20;;;;;;1721223;28;20288;-71
2023/05/20 08:56:52;;;;;;;7.70;7.00;;;20.90;97.20;;;;;;1721227;28;20209;-71
2023/05/20 08:57:45;;;;;;;7.03;6.47;;;21.00;97.20;;;;;;1721266;28;20209;-72
2023/05/20 08:58:36;;;;;;;7.72;7.00;;;21.10;97.20;;;;;;1721339;28;20266;-72
2023/05/20 08:59:27;;;;;;;7.15;6.65;;;21.20;97.20;;;;;;1721230;28;20577;-72
2023/05/20 09:00:20;;;;;;;7.30;6.60;;;21.40;97.20;;;;;;1721319;28;20193;-72
2023/05/20 09:01:11;;;;;;;7.15;6.55;;;21.50;97.20;;;;;;1721281;28;20510;-72
2023/05/20 09:02:03;;;;;;;7.43;6.73;;;21.60;97.20;;;;;;1721386;28;20251;-72
2023/05/20 09:02:54;;;;;;;8.10;7.40;;;21.70;97.20;;;;;;1720687;28;20950;-72
2023/05/20 09:03:46;;;;;;;7.50;6.90;;;21.80;97.20;;;;;;1721114;28;20621;-72
2023/05/20 09:04:37;;;;;;;7.40;6.80;;;21.80;97.20;;;;;;1721232;28;20236;-72
2023/05/20 09:05:29;;;;;;;8.07;7.45;;;21.80;97.20;;;;;;1720832;28;20216;-72
2023/05/20 09:06:19;;;;;;;8.75;8.05;;;21.90;97.20;;;;;;1721198;28;20205;-72
2023/05/20 09:07:11;;;;;;;7.60;6.90;;;22.00;97.20;;;;;;1721159;28;20201;-72
2023/05/20 09:08:07;;;;;;;7.95;7.30;;;22.10;97.20;;;;;;1721099;28;20208;-72
2023/05/20 09:09:00;;;;;;;6.90;6.25;;;22.20;97.20;;;;;;1721275;28;20339;-72
2023/05/20 09:09:51;;;;;;;7.57;6.82;;;22.30;97.20;;;;;;1721139;28;20213;-72
2023/05/20 09:10:43;;;;;;;6.82;6.22;;;22.40;97.20;;;;;;1721087;28;20291;-71
2023/05/20 09:11:34;;;;;;;8.68;6.50;;;22.50;97.20;;;;;;1721183;28;20208;-73
2023/05/20 09:12:25;;;;;;;7.70;7.10;;;22.50;97.20;;;;;;1720450;28;20201;-73
2023/05/20 09:13:16;;;;;;;6.63;6.07;;;22.60;97.20;;;;;;1721206;28;20451;-75
2023/05/20 09:14:08;;;;;;;7.53;6.93;;;22.70;97.20;;;;;;1720979;28;20204;-71
2023/05/20 09:14:59;;;;;;;7.28;6.60;;;22.80;97.20;;;;;;1720900;28;20592;-71
2023/05/20 09:15:51;;;;;;;8.10;7.37;;;22.90;97.20;;;;;;1721168;28;20560;-71
2023/05/20 09:16:42;;;;;;;7.90;7.20;;;23.00;97.20;;;;;;1721196;28;20205;-72
2023/05/20 09:17:35;;;;;;;6.97;6.37;;;23.10;97.20;;;;;;1721039;28;20193;-72
2023/05/20 09:18:26;;;;;;;7.88;7.28;;;23.20;97.20;;;;;;1721055;28;20443;-74
2023/05/20 09:19:19;;;;;;;6.97;6.47;;;23.30;97.20;;;;;;1721176;28;20208;-74
2023/05/20 09:20:11;;;;;;;9.55;6.82;;;23.50;97.20;;;;;;1721006;28;20436;-74
2023/05/20 09:21:05;;;;;;;7.90;7.20;;;23.60;97.20;;;;;;1721190;28;20201;-74
2023/05/20 09:21:57;;;;;;;7.55;6.13;;;23.70;97.20;;;;;;1721277;28;20289;-73
2023/05/20 09:22:51;;;;;;;6.85;6.35;;;23.80;97.20;;;;;;1720352;28;20201;-73
2023/05/20 09:23:48;;;;;;;6.93;6.35;;;24.00;97.20;;;;;;1720976;28;20201;-74
2023/05/20 09:24:41;;;;;;;7.75;6.05;;;24.10;97.20;;;;;;1721051;28;20689;-73
2023/05/20 09:25:32;;;;;;;6.32;5.72;;;24.10;97.20;;;;;;1720823;28;20198;-73
2023/05/20 09:26:24;;;;;;;7.97;6.30;;;24.10;97.20;;;;;;1721205;28;20193;-74
2023/05/20 09:27:15;;;;;;;6.80;6.15;;;24.20;97.20;;;;;;1721076;28;20472;-74
2023/05/20 09:28:08;;;;;;;6.73;6.13;;;24.20;97.20;;;;;;1721049;28;20653;-75